University Park, New Mexico
Current Conditions -  °F | °C
As of 4:55 PM on Wednesday 22 Oct 2014 (Local Time) from KLRU Reporting Station
Clear Clear  
Wind Chill: 73°   Ceiling: Unl
Heat Index: 73°   Visibility: 10mi
Dew Point: 47°   Wind: 5mph
Humidity: 39%   Direction: 240°WSW
Pressure: 30.12"   Gusts: NA
Location:  32.2825°N, 106.737°W
Report Text: KLRU 222255Z AUTO 24004KT 10SM CLR 23/08 A3012 RMK AO2 T02290084 PWINO
Loading
Personal Weather Stations






























Interactive Weather Map New forecast layout! Learn more

10-Day Weather Forecast

Advertisements
Track Severe Weather on mobile